KBTV/BTV METAR and TAF weather

Enter ICAO airport designator
Station Type Date Time Source
KBTV METAR 2020/01/21 20:54 UTC NOAA

KBTV 212054Z 19005KT 10SM SCT090 BKN110 M08/M17 A3039 RMK AO2 SLP298 T10831167 58008 $


Station Type Date Time Source
KBTV Decoded METAR 2020/01/21 20:54 UTC NOAA

BURLINGTON INTERNATIONAL, VT, United States (KBTV) 44-28N 73-09W 105M
Jan 21, 2020 - 03:54 PM EST / 2020.01.21 2054 UTC
Wind: from the S (190 degrees) at 6 MPH (5 KT):0
Visibility: 10 mile(s):0
Sky conditions: mostly cloudy
Temperature: 17.1 F (-8.3 C)
Windchill: 8 F (-13 C):1
Dew Point: 1.9 F (-16.7 C)
Relative Humidity: 50%
Pressure (altimeter): 30.39 in. Hg (1029 hPa)
Pressure tendency: 0.02 inches (0.8 hPa) lower than three hours ago
ob: KBTV 212054Z 19005KT 10SM SCT090 BKN110 M08/M17 A3039 RMK AO2 SLP298 T10831167 58008
cycle: 21

Station Type Date Time Source
KBTV TAF 2020/01/21 18:36 UTC NOAA

TAF KBTV 211733Z 2118/2218 VRB03KT P6SM SCT150
FM212200 17006KT P6SM BKN100
FM220900 17005KT P6SM BKN040

Example: see airport list